sensor_id;sensor_type;location;lat;lon;timestamp;temperature;humidity
15983;DHT22;14442;50.196;8.096;2022-07-04T00:01:40;22.10;64.10
15983;DHT22;14442;50.196;8.096;2022-07-04T00:04:08;22.10;64.10
15983;DHT22;14442;50.196;8.096;2022-07-04T00:06:34;22.10;64.00
15983;DHT22;14442;50.196;8.096;2022-07-04T00:09:01;22.20;64.10
15983;DHT22;14442;50.196;8.096;2022-07-04T00:11:28;22.10;64.00
15983;DHT22;14442;50.196;8.096;2022-07-04T00:13:54;22.10;64.70
15983;DHT22;14442;50.196;8.096;2022-07-04T00:16:21;22.10;64.00
15983;DHT22;14442;50.196;8.096;2022-07-04T00:18:48;22.10;64.00
15983;DHT22;14442;50.196;8.096;2022-07-04T00:21:16;22.10;64.00
15983;DHT22;14442;50.196;8.096;2022-07-04T00:23:43;22.00;63.90
15983;DHT22;14442;50.196;8.096;2022-07-04T00:26:09;22.10;64.00
15983;DHT22;14442;50.196;8.096;2022-07-04T00:28:36;22.10;64.00
15983;DHT22;14442;50.196;8.096;2022-07-04T00:31:03;22.00;63.90
15983;DHT22;14442;50.196;8.096;2022-07-04T00:33:29;22.00;63.90
15983;DHT22;14442;50.196;8.096;2022-07-04T00:35:56;22.00;63.90
15983;DHT22;14442;50.196;8.096;2022-07-04T00:38:24;22.00;63.90
15983;DHT22;14442;50.196;8.096;2022-07-04T00:40:51;22.00;63.90
15983;DHT22;14442;50.196;8.096;2022-07-04T00:43:21;22.00;63.90
15983;DHT22;14442;50.196;8.096;2022-07-04T00:45:48;22.00;63.90
15983;DHT22;14442;50.196;8.096;2022-07-04T00:48:15;22.00;63.90
15983;DHT22;14442;50.196;8.096;2022-07-04T00:50:42;22.00;63.90
15983;DHT22;14442;50.196;8.096;2022-07-04T00:53:10;22.00;63.90
15983;DHT22;14442;50.196;8.096;2022-07-04T00:55:39;22.00;63.90
15983;DHT22;14442;50.196;8.096;2022-07-04T00:58:06;21.90;63.80
15983;DHT22;14442;50.196;8.096;2022-07-04T01:00:32;21.90;63.70
15983;DHT22;14442;50.196;8.096;2022-07-04T01:02:59;21.90;63.70
15983;DHT22;14442;50.196;8.096;2022-07-04T01:05:26;22.00;63.80
15983;DHT22;14442;50.196;8.096;2022-07-04T01:07:53;21.90;63.70
15983;DHT22;14442;50.196;8.096;2022-07-04T01:10:20;21.90;63.70
15983;DHT22;14442;50.196;8.096;2022-07-04T01:12:48;21.90;63.70
15983;DHT22;14442;50.196;8.096;2022-07-04T01:15:15;21.90;63.80
15983;DHT22;14442;50.196;8.096;2022-07-04T01:17:41;21.90;63.70
15983;DHT22;14442;50.196;8.096;2022-07-04T01:20:11;21.90;63.70
15983;DHT22;14442;50.196;8.096;2022-07-04T01:22:38;21.90;63.70
15983;DHT22;14442;50.196;8.096;2022-07-04T01:25:06;21.90;63.70
15983;DHT22;14442;50.196;8.096;2022-07-04T01:27:32;21.90;63.60
15983;DHT22;14442;50.196;8.096;2022-07-04T01:29:59;21.90;63.60
15983;DHT22;14442;50.196;8.096;2022-07-04T01:32:26;21.90;63.60
15983;DHT22;14442;50.196;8.096;2022-07-04T01:34:53;21.90;63.50
15983;DHT22;14442;50.196;8.096;2022-07-04T01:37:21;21.90;63.50
15983;DHT22;14442;50.196;8.096;2022-07-04T01:39:48;21.90;63.60
15983;DHT22;14442;50.196;8.096;2022-07-04T01:42:14;21.80;63.40
15983;DHT22;14442;50.196;8.096;2022-07-04T01:44:41;21.90;63.50
15983;DHT22;14442;50.196;8.096;2022-07-04T01:47:08;21.80;63.30
15983;DHT22;14442;50.196;8.096;2022-07-04T01:49:34;21.80;63.40
15983;DHT22;14442;50.196;8.096;2022-07-04T01:52:02;21.80;63.30
15983;DHT22;14442;50.196;8.096;2022-07-04T01:54:30;21.80;63.30
15983;DHT22;14442;50.196;8.096;2022-07-04T01:56:57;21.80;63.40
15983;DHT22;14442;50.196;8.096;2022-07-04T01:59:23;21.80;63.20
15983;DHT22;14442;50.196;8.096;2022-07-04T02:02:10;21.80;63.20
15983;DHT22;14442;50.196;8.096;2022-07-04T02:04:36;21.80;63.30
15983;DHT22;14442;50.196;8.096;2022-07-04T02:07:03;21.80;63.30
15983;DHT22;14442;50.196;8.096;2022-07-04T02:09:31;21.80;63.20
15983;DHT22;14442;50.196;8.096;2022-07-04T02:11:58;21.80;63.20
15983;DHT22;14442;50.196;8.096;2022-07-04T02:14:42;21.80;63.20
15983;DHT22;14442;50.196;8.096;2022-07-04T02:17:09;21.70;63.10
15983;DHT22;14442;50.196;8.096;2022-07-04T02:19:36;21.70;63.10
15983;DHT22;14442;50.196;8.096;2022-07-04T02:22:03;21.70;63.00
15983;DHT22;14442;50.196;8.096;2022-07-04T02:24:31;21.70;63.00
15983;DHT22;14442;50.196;8.096;2022-07-04T02:26:58;21.70;63.00
15983;DHT22;14442;50.196;8.096;2022-07-04T02:29:24;21.70;63.00
15983;DHT22;14442;50.196;8.096;2022-07-04T02:31:51;21.70;63.00
15983;DHT22;14442;50.196;8.096;2022-07-04T02:34:18;21.70;62.90
15983;DHT22;14442;50.196;8.096;2022-07-04T02:36:45;21.70;62.90
15983;DHT22;14442;50.196;8.096;2022-07-04T02:39:11;21.70;63.00
15983;DHT22;14442;50.196;8.096;2022-07-04T02:41:40;21.70;62.90
15983;DHT22;14442;50.196;8.096;2022-07-04T02:44:07;21.70;62.90
15983;DHT22;14442;50.196;8.096;2022-07-04T02:46:33;21.70;62.90
15983;DHT22;14442;50.196;8.096;2022-07-04T02:49:00;21.70;62.80
15983;DHT22;14442;50.196;8.096;2022-07-04T02:51:27;21.60;62.70
15983;DHT22;14442;50.196;8.096;2022-07-04T02:53:54;21.70;62.80
15983;DHT22;14442;50.196;8.096;2022-07-04T02:56:21;21.70;62.80
15983;DHT22;14442;50.196;8.096;2022-07-04T02:58:49;21.60;62.60
15983;DHT22;14442;50.196;8.096;2022-07-04T03:01:16;21.60;62.60
15983;DHT22;14442;50.196;8.096;2022-07-04T03:03:45;21.70;62.70
15983;DHT22;14442;50.196;8.096;2022-07-04T03:06:12;21.60;62.60
15983;DHT22;14442;50.196;8.096;2022-07-04T03:08:39;21.60;62.60
15983;DHT22;14442;50.196;8.096;2022-07-04T03:11:06;21.60;62.60
15983;DHT22;14442;50.196;8.096;2022-07-04T03:13:33;21.60;62.50
15983;DHT22;14442;50.196;8.096;2022-07-04T03:16:01;21.60;62.50
15983;DHT22;14442;50.196;8.096;2022-07-04T03:18:27;21.60;62.40
15983;DHT22;14442;50.196;8.096;2022-07-04T03:20:54;21.60;62.60
15983;DHT22;14442;50.196;8.096;2022-07-04T03:23:21;21.60;62.50
15983;DHT22;14442;50.196;8.096;2022-07-04T03:25:48;21.60;62.50
15983;DHT22;14442;50.196;8.096;2022-07-04T03:28:14;21.60;62.50
15983;DHT22;14442;50.196;8.096;2022-07-04T03:30:41;21.60;62.40
15983;DHT22;14442;50.196;8.096;2022-07-04T03:33:09;21.60;62.40
15983;DHT22;14442;50.196;8.096;2022-07-04T03:35:36;21.60;62.40
15983;DHT22;14442;50.196;8.096;2022-07-04T03:38:03;21.50;62.30
15983;DHT22;14442;50.196;8.096;2022-07-04T03:40:29;21.50;62.40
15983;DHT22;14442;50.196;8.096;2022-07-04T03:42:57;21.50;62.40
15983;DHT22;14442;50.196;8.096;2022-07-04T03:45:24;21.50;62.40
15983;DHT22;14442;50.196;8.096;2022-07-04T03:47:51;21.50;62.30
15983;DHT22;14442;50.196;8.096;2022-07-04T03:50:19;21.50;62.40
15983;DHT22;14442;50.196;8.096;2022-07-04T03:52:46;21.50;62.30
15983;DHT22;14442;50.196;8.096;2022-07-04T03:55:13;21.50;62.40
15983;DHT22;14442;50.196;8.096;2022-07-04T03:57:39;21.50;62.30
15983;DHT22;14442;50.196;8.096;2022-07-04T04:00:07;21.50;62.30
15983;DHT22;14442;50.196;8.096;2022-07-04T04:02:35;21.50;62.40
15983;DHT22;14442;50.196;8.096;2022-07-04T04:05:03;21.50;62.30
15983;DHT22;14442;50.196;8.096;2022-07-04T04:07:48;21.50;62.30
15983;DHT22;14442;50.196;8.096;2022-07-04T04:10:15;21.50;62.30
15983;DHT22;14442;50.196;8.096;2022-07-04T04:12:42;21.50;62.40
15983;DHT22;14442;50.196;8.096;2022-07-04T04:15:10;21.50;62.40
15983;DHT22;14442;50.196;8.096;2022-07-04T04:17:37;21.50;62.40
15983;DHT22;14442;50.196;8.096;2022-07-04T04:20:04;21.50;62.50
15983;DHT22;14442;50.196;8.096;2022-07-04T04:22:31;21.50;62.50
15983;DHT22;14442;50.196;8.096;2022-07-04T04:24:59;21.50;62.40
15983;DHT22;14442;50.196;8.096;2022-07-04T04:27:26;21.50;62.40
15983;DHT22;14442;50.196;8.096;2022-07-04T04:29:53;21.50;62.40
15983;DHT22;14442;50.196;8.096;2022-07-04T04:32:20;21.50;62.60
15983;DHT22;14442;50.196;8.096;2022-07-04T04:34:47;21.50;62.50
15983;DHT22;14442;50.196;8.096;2022-07-04T04:37:14;21.50;62.50
15983;DHT22;14442;50.196;8.096;2022-07-04T04:39:40;21.50;62.50
15983;DHT22;14442;50.196;8.096;2022-07-04T04:42:09;21.50;62.50
15983;DHT22;14442;50.196;8.096;2022-07-04T04:44:35;21.50;62.50
15983;DHT22;14442;50.196;8.096;2022-07-04T04:47:02;21.50;62.50
15983;DHT22;14442;50.196;8.096;2022-07-04T04:49:29;21.50;62.50
15983;DHT22;14442;50.196;8.096;2022-07-04T04:51:56;21.50;62.60
15983;DHT22;14442;50.196;8.096;2022-07-04T04:54:22;21.50;62.50
15983;DHT22;14442;50.196;8.096;2022-07-04T04:56:49;21.50;62.60
15983;DHT22;14442;50.196;8.096;2022-07-04T04:59:17;21.50;62.60
15983;DHT22;14442;50.196;8.096;2022-07-04T05:01:44;21.50;62.60
15983;DHT22;14442;50.196;8.096;2022-07-04T05:04:10;21.40;62.60
15983;DHT22;14442;50.196;8.096;2022-07-04T05:06:40;21.50;62.70
15983;DHT22;14442;50.196;8.096;2022-07-04T05:09:06;21.50;62.70
15983;DHT22;14442;50.196;8.096;2022-07-04T05:11:33;21.50;62.60
15983;DHT22;14442;50.196;8.096;2022-07-04T05:14:00;21.50;62.60
15983;DHT22;14442;50.196;8.096;2022-07-04T05:16:28;21.50;62.60
15983;DHT22;14442;50.196;8.096;2022-07-04T05:18:55;21.50;62.70
15983;DHT22;14442;50.196;8.096;2022-07-04T05:21:21;21.50;62.60
15983;DHT22;14442;50.196;8.096;2022-07-04T05:23:51;21.50;62.70
15983;DHT22;14442;50.196;8.096;2022-07-04T05:26:18;21.50;62.70
15983;DHT22;14442;50.196;8.096;2022-07-04T05:28:45;21.50;62.60
15983;DHT22;14442;50.196;8.096;2022-07-04T05:31:12;21.50;62.60
15983;DHT22;14442;50.196;8.096;2022-07-04T05:33:40;21.50;62.60
15983;DHT22;14442;50.196;8.096;2022-07-04T05:36:07;21.50;62.60
15983;DHT22;14442;50.196;8.096;2022-07-04T05:38:34;21.50;62.60
15983;DHT22;14442;50.196;8.096;2022-07-04T05:41:01;21.50;62.60
15983;DHT22;14442;50.196;8.096;2022-07-04T05:43:27;21.50;62.60
15983;DHT22;14442;50.196;8.096;2022-07-04T05:45:54;21.50;62.60
15983;DHT22;14442;50.196;8.096;2022-07-04T05:48:21;21.50;62.60
15983;DHT22;14442;50.196;8.096;2022-07-04T05:50:49;21.50;62.60
15983;DHT22;14442;50.196;8.096;2022-07-04T05:53:16;21.50;62.60
15983;DHT22;14442;50.196;8.096;2022-07-04T05:55:42;21.50;62.60
15983;DHT22;14442;50.196;8.096;2022-07-04T05:58:09;21.50;62.60
15983;DHT22;14442;50.196;8.096;2022-07-04T06:00:36;21.50;62.60
15983;DHT22;14442;50.196;8.096;2022-07-04T06:03:05;21.50;62.60
15983;DHT22;14442;50.196;8.096;2022-07-04T06:05:31;21.50;62.60
15983;DHT22;14442;50.196;8.096;2022-07-04T06:07:59;21.50;62.60
15983;DHT22;14442;50.196;8.096;2022-07-04T06:10:27;21.50;62.60
15983;DHT22;14442;50.196;8.096;2022-07-04T06:12:53;21.50;62.60
15983;DHT22;14442;50.196;8.096;2022-07-04T06:15:20;21.50;62.60
15983;DHT22;14442;50.196;8.096;2022-07-04T06:17:47;21.50;62.60
15983;DHT22;14442;50.196;8.096;2022-07-04T06:20:14;21.50;62.60
15983;DHT22;14442;50.196;8.096;2022-07-04T06:22:41;21.50;62.60
15983;DHT22;14442;50.196;8.096;2022-07-04T06:25:11;21.50;62.60
15983;DHT22;14442;50.196;8.096;2022-07-04T06:27:38;21.50;62.60
15983;DHT22;14442;50.196;8.096;2022-07-04T06:30:06;21.50;62.60
15983;DHT22;14442;50.196;8.096;2022-07-04T06:32:41;21.50;62.60
15983;DHT22;14442;50.196;8.096;2022-07-04T06:35:08;21.50;62.50
15983;DHT22;14442;50.196;8.096;2022-07-04T06:37:53;21.50;62.50
15983;DHT22;14442;50.196;8.096;2022-07-04T06:40:21;21.60;62.50
15983;DHT22;14442;50.196;8.096;2022-07-04T06:42:49;21.50;62.40
15983;DHT22;14442;50.196;8.096;2022-07-04T06:45:15;21.60;62.60
15983;DHT22;14442;50.196;8.096;2022-07-04T06:47:43;21.60;62.50
15983;DHT22;14442;50.196;8.096;2022-07-04T06:50:10;21.60;62.50
15983;DHT22;14442;50.196;8.096;2022-07-04T06:52:37;21.60;62.60
15983;DHT22;14442;50.196;8.096;2022-07-04T06:55:04;21.60;62.60
15983;DHT22;14442;50.196;8.096;2022-07-04T06:57:33;21.50;62.60
15983;DHT22;14442;50.196;8.096;2022-07-04T07:00:00;21.60;62.70
15983;DHT22;14442;50.196;8.096;2022-07-04T07:02:26;21.60;62.60
15983;DHT22;14442;50.196;8.096;2022-07-04T07:04:54;21.60;62.80
15983;DHT22;14442;50.196;8.096;2022-07-04T07:07:21;21.60;63.40
15983;DHT22;14442;50.196;8.096;2022-07-04T07:09:49;21.60;62.70
15983;DHT22;14442;50.196;8.096;2022-07-04T07:12:16;21.60;62.70
15983;DHT22;14442;50.196;8.096;2022-07-04T07:14:44;21.60;62.60
15983;DHT22;14442;50.196;8.096;2022-07-04T07:17:11;21.60;62.60
15983;DHT22;14442;50.196;8.096;2022-07-04T07:19:38;21.60;62.50
15983;DHT22;14442;50.196;8.096;2022-07-04T07:22:05;21.60;62.50
15983;DHT22;14442;50.196;8.096;2022-07-04T07:24:31;21.60;62.40
15983;DHT22;14442;50.196;8.096;2022-07-04T07:26:58;21.60;62.40
15983;DHT22;14442;50.196;8.096;2022-07-04T07:29:25;21.60;62.40
15983;DHT22;14442;50.196;8.096;2022-07-04T07:31:53;21.60;62.40
15983;DHT22;14442;50.196;8.096;2022-07-04T07:34:20;21.70;62.40
15983;DHT22;14442;50.196;8.096;2022-07-04T07:36:47;21.70;62.60
15983;DHT22;14442;50.196;8.096;2022-07-04T07:39:13;21.70;62.90
15983;DHT22;14442;50.196;8.096;2022-07-04T07:41:40;21.70;62.90
15983;DHT22;14442;50.196;8.096;2022-07-04T07:44:07;21.80;62.90
15983;DHT22;14442;50.196;8.096;2022-07-04T07:46:34;21.70;62.70
15983;DHT22;14442;50.196;8.096;2022-07-04T07:49:02;21.70;63.00
15983;DHT22;14442;50.196;8.096;2022-07-04T07:51:29;21.80;63.00
15983;DHT22;14442;50.196;8.096;2022-07-04T07:53:56;21.80;63.00
15983;DHT22;14442;50.196;8.096;2022-07-04T07:56:23;21.80;63.40
15983;DHT22;14442;50.196;8.096;2022-07-04T07:58:50;21.80;63.30
15983;DHT22;14442;50.196;8.096;2022-07-04T08:01:17;21.90;63.60
15983;DHT22;14442;50.196;8.096;2022-07-04T08:03:43;22.00;63.80
15983;DHT22;14442;50.196;8.096;2022-07-04T08:06:29;22.00;63.70
15983;DHT22;14442;50.196;8.096;2022-07-04T08:08:56;22.10;63.70
15983;DHT22;14442;50.196;8.096;2022-07-04T08:11:23;22.10;63.90
15983;DHT22;14442;50.196;8.096;2022-07-04T08:13:51;22.10;64.20
15983;DHT22;14442;50.196;8.096;2022-07-04T08:16:17;22.20;64.30
15983;DHT22;14442;50.196;8.096;2022-07-04T08:18:45;22.10;64.30
15983;DHT22;14442;50.196;8.096;2022-07-04T08:21:11;22.20;64.50
15983;DHT22;14442;50.196;8.096;2022-07-04T08:23:40;22.10;64.40
15983;DHT22;14442;50.196;8.096;2022-07-04T08:26:07;22.20;64.50
15983;DHT22;14442;50.196;8.096;2022-07-04T08:28:34;22.10;64.40
15983;DHT22;14442;50.196;8.096;2022-07-04T08:31:01;22.20;64.60
15983;DHT22;14442;50.196;8.096;2022-07-04T08:33:29;22.20;64.60
15983;DHT22;14442;50.196;8.096;2022-07-04T08:35:56;22.20;64.70
15983;DHT22;14442;50.196;8.096;2022-07-04T08:38:23;22.10;64.60
15983;DHT22;14442;50.196;8.096;2022-07-04T08:40:56;22.20;64.60
15983;DHT22;14442;50.196;8.096;2022-07-04T08:43:24;22.10;64.50
15983;DHT22;14442;50.196;8.096;2022-07-04T08:45:53;22.10;64.40
15983;DHT22;14442;50.196;8.096;2022-07-04T08:48:23;22.10;64.20
15983;DHT22;14442;50.196;8.096;2022-07-04T08:50:54;22.00;64.10
15983;DHT22;14442;50.196;8.096;2022-07-04T08:53:21;22.00;64.10
15983;DHT22;14442;50.196;8.096;2022-07-04T08:55:49;21.90;63.90
15983;DHT22;14442;50.196;8.096;2022-07-04T08:58:38;22.00;63.90
15983;DHT22;14442;50.196;8.096;2022-07-04T09:01:06;21.90;63.50
15983;DHT22;14442;50.196;8.096;2022-07-04T09:03:34;21.90;63.50
15983;DHT22;14442;50.196;8.096;2022-07-04T09:06:01;21.90;63.10
15983;DHT22;14442;50.196;8.096;2022-07-04T09:08:28;21.80;61.30
15983;DHT22;14442;50.196;8.096;2022-07-04T09:10:55;21.90;62.70
15983;DHT22;14442;50.196;8.096;2022-07-04T09:13:22;21.90;62.70
15983;DHT22;14442;50.196;8.096;2022-07-04T09:15:51;21.90;62.10
15983;DHT22;14442;50.196;8.096;2022-07-04T09:18:23;21.90;61.60
15983;DHT22;14442;50.196;8.096;2022-07-04T09:20:50;21.90;61.30
15983;DHT22;14442;50.196;8.096;2022-07-04T09:23:18;22.00;61.40
15983;DHT22;14442;50.196;8.096;2022-07-04T09:25:46;22.00;61.30
15983;DHT22;14442;50.196;8.096;2022-07-04T09:28:26;21.90;61.10
15983;DHT22;14442;50.196;8.096;2022-07-04T09:30:54;22.00;61.20
15983;DHT22;14442;50.196;8.096;2022-07-04T09:33:21;22.00;61.20
15983;DHT22;14442;50.196;8.096;2022-07-04T09:35:49;22.00;61.30
15983;DHT22;14442;50.196;8.096;2022-07-04T09:38:21;22.00;61.30
15983;DHT22;14442;50.196;8.096;2022-07-04T09:40:52;22.00;61.30
15983;DHT22;14442;50.196;8.096;2022-07-04T09:43:37;22.00;61.20
15983;DHT22;14442;50.196;8.096;2022-07-04T09:46:05;22.00;61.20
15983;DHT22;14442;50.196;8.096;2022-07-04T09:48:49;22.00;61.10
15983;DHT22;14442;50.196;8.096;2022-07-04T09:51:35;22.00;61.10
15983;DHT22;14442;50.196;8.096;2022-07-04T09:54:16;22.00;61.10
15983;DHT22;14442;50.196;8.096;2022-07-04T09:56:44;22.00;61.00
15983;DHT22;14442;50.196;8.096;2022-07-04T09:59:11;22.00;60.80
15983;DHT22;14442;50.196;8.096;2022-07-04T10:01:39;22.00;60.70
15983;DHT22;14442;50.196;8.096;2022-07-04T10:04:07;22.00;60.60
15983;DHT22;14442;50.196;8.096;2022-07-04T10:06:37;22.00;60.70
15983;DHT22;14442;50.196;8.096;2022-07-04T10:09:11;22.00;60.70
15983;DHT22;14442;50.196;8.096;2022-07-04T10:11:39;22.00;60.60
15983;DHT22;14442;50.196;8.096;2022-07-04T10:14:07;22.00;61.20
15983;DHT22;14442;50.196;8.096;2022-07-04T10:16:34;22.00;60.40
15983;DHT22;14442;50.196;8.096;2022-07-04T10:19:03;22.00;60.40
15983;DHT22;14442;50.196;8.096;2022-07-04T10:21:30;22.00;60.40
15983;DHT22;14442;50.196;8.096;2022-07-04T10:23:57;22.00;60.40
15983;DHT22;14442;50.196;8.096;2022-07-04T10:26:24;22.00;60.40
15983;DHT22;14442;50.196;8.096;2022-07-04T10:28:51;22.00;60.20
15983;DHT22;14442;50.196;8.096;2022-07-04T10:31:20;22.00;60.30
15983;DHT22;14442;50.196;8.096;2022-07-04T10:33:49;22.00;60.20
15983;DHT22;14442;50.196;8.096;2022-07-04T10:36:19;22.00;60.10
15983;DHT22;14442;50.196;8.096;2022-07-04T10:38:47;22.00;60.00
15983;DHT22;14442;50.196;8.096;2022-07-04T10:41:14;22.00;59.90
15983;DHT22;14442;50.196;8.096;2022-07-04T10:43:55;22.00;59.80
15983;DHT22;14442;50.196;8.096;2022-07-04T10:46:30;22.00;59.80
15983;DHT22;14442;50.196;8.096;2022-07-04T10:49:00;22.10;59.80
15983;DHT22;14442;50.196;8.096;2022-07-04T10:51:41;22.00;59.70
15983;DHT22;14442;50.196;8.096;2022-07-04T10:54:10;22.00;59.60
15983;DHT22;14442;50.196;8.096;2022-07-04T10:56:42;22.00;59.60
15983;DHT22;14442;50.196;8.096;2022-07-04T10:59:12;22.00;59.60
15983;DHT22;14442;50.196;8.096;2022-07-04T11:01:45;22.10;59.50
15983;DHT22;14442;50.196;8.096;2022-07-04T11:04:11;22.10;59.50
15983;DHT22;14442;50.196;8.096;2022-07-04T11:06:52;22.00;59.40
15983;DHT22;14442;50.196;8.096;2022-07-04T11:09:21;22.10;59.50
15983;DHT22;14442;50.196;8.096;2022-07-04T11:11:54;22.10;59.40
15983;DHT22;14442;50.196;8.096;2022-07-04T11:14:38;22.00;59.30
15983;DHT22;14442;50.196;8.096;2022-07-04T11:17:07;22.10;59.10
15983;DHT22;14442;50.196;8.096;2022-07-04T11:19:35;22.10;59.10
15983;DHT22;14442;50.196;8.096;2022-07-04T11:22:03;22.10;59.10
15983;DHT22;14442;50.196;8.096;2022-07-04T11:24:32;22.00;59.10
15983;DHT22;14442;50.196;8.096;2022-07-04T11:26:59;22.00;59.20
15983;DHT22;14442;50.196;8.096;2022-07-04T11:29:27;22.00;58.90
15983;DHT22;14442;50.196;8.096;2022-07-04T11:31:55;22.00;58.60
15983;DHT22;14442;50.196;8.096;2022-07-04T11:34:22;22.00;58.40
15983;DHT22;14442;50.196;8.096;2022-07-04T11:36:50;22.00;58.50
15983;DHT22;14442;50.196;8.096;2022-07-04T11:39:19;22.10;58.30
15983;DHT22;14442;50.196;8.096;2022-07-04T11:41:49;22.00;58.00
15983;DHT22;14442;50.196;8.096;2022-07-04T11:44:35;22.10;58.10
15983;DHT22;14442;50.196;8.096;2022-07-04T11:47:21;22.00;57.80
15983;DHT22;14442;50.196;8.096;2022-07-04T11:49:49;22.10;58.10
15983;DHT22;14442;50.196;8.096;2022-07-04T11:52:18;22.10;57.70
15983;DHT22;14442;50.196;8.096;2022-07-04T11:54:48;22.10;57.70
15983;DHT22;14442;50.196;8.096;2022-07-04T11:57:18;22.10;57.60
15983;DHT22;14442;50.196;8.096;2022-07-04T11:59:55;22.10;57.30
15983;DHT22;14442;50.196;8.096;2022-07-04T12:02:23;22.10;57.30
15983;DHT22;14442;50.196;8.096;2022-07-04T12:04:50;22.10;57.20
15983;DHT22;14442;50.196;8.096;2022-07-04T12:07:18;22.10;57.30
15983;DHT22;14442;50.196;8.096;2022-07-04T12:09:47;22.10;57.20
15983;DHT22;14442;50.196;8.096;2022-07-04T12:12:15;22.10;56.90
15983;DHT22;14442;50.196;8.096;2022-07-04T12:15:01;22.10;56.60
15983;DHT22;14442;50.196;8.096;2022-07-04T12:17:33;22.10;56.30
15983;DHT22;14442;50.196;8.096;2022-07-04T12:20:01;22.10;55.90
15983;DHT22;14442;50.196;8.096;2022-07-04T12:22:34;22.10;55.80
15983;DHT22;14442;50.196;8.096;2022-07-04T12:25:04;22.10;55.80
15983;DHT22;14442;50.196;8.096;2022-07-04T12:27:32;22.10;55.90
15983;DHT22;14442;50.196;8.096;2022-07-04T12:29:59;22.10;57.10
15983;DHT22;14442;50.196;8.096;2022-07-04T12:32:49;22.20;57.40
15983;DHT22;14442;50.196;8.096;2022-07-04T12:35:35;22.30;57.80
15983;DHT22;14442;50.196;8.096;2022-07-04T12:38:04;22.40;58.00
15983;DHT22;14442;50.196;8.096;2022-07-04T12:40:32;22.40;58.40
15983;DHT22;14442;50.196;8.096;2022-07-04T12:43:00;22.40;58.20
15983;DHT22;14442;50.196;8.096;2022-07-04T12:45:41;22.40;58.10
15983;DHT22;14442;50.196;8.096;2022-07-04T12:48:24;22.40;59.00
15983;DHT22;14442;50.196;8.096;2022-07-04T12:50:52;22.50;59.20
15983;DHT22;14442;50.196;8.096;2022-07-04T12:53:19;22.50;59.30
15983;DHT22;14442;50.196;8.096;2022-07-04T12:55:49;22.50;59.40
15983;DHT22;14442;50.196;8.096;2022-07-04T12:58:16;22.60;59.10
15983;DHT22;14442;50.196;8.096;2022-07-04T13:00:43;22.60;59.70
15983;DHT22;14442;50.196;8.096;2022-07-04T13:03:10;22.60;60.00
15983;DHT22;14442;50.196;8.096;2022-07-04T13:05:38;22.60;60.00
15983;DHT22;14442;50.196;8.096;2022-07-04T13:08:05;22.70;59.80
15983;DHT22;14442;50.196;8.096;2022-07-04T13:10:33;22.70;60.00
15983;DHT22;14442;50.196;8.096;2022-07-04T13:13:01;22.70;60.00
15983;DHT22;14442;50.196;8.096;2022-07-04T13:15:28;22.70;59.80
15983;DHT22;14442;50.196;8.096;2022-07-04T13:17:55;22.80;60.10
15983;DHT22;14442;50.196;8.096;2022-07-04T13:20:22;22.80;60.20
15983;DHT22;14442;50.196;8.096;2022-07-04T13:22:49;22.80;59.90
15983;DHT22;14442;50.196;8.096;2022-07-04T13:25:15;22.80;59.80
15983;DHT22;14442;50.196;8.096;2022-07-04T13:27:42;22.90;59.50
15983;DHT22;14442;50.196;8.096;2022-07-04T13:30:11;22.90;59.00
15983;DHT22;14442;50.196;8.096;2022-07-04T13:32:38;22.90;58.70
15983;DHT22;14442;50.196;8.096;2022-07-04T13:35:05;22.80;59.00
15983;DHT22;14442;50.196;8.096;2022-07-04T13:37:32;22.90;59.20
15983;DHT22;14442;50.196;8.096;2022-07-04T13:39:59;22.90;59.10
15983;DHT22;14442;50.196;8.096;2022-07-04T13:42:25;22.90;59.30
15983;DHT22;14442;50.196;8.096;2022-07-04T13:45:11;22.90;59.30
15983;DHT22;14442;50.196;8.096;2022-07-04T13:47:39;22.90;59.10
15983;DHT22;14442;50.196;8.096;2022-07-04T13:50:07;22.90;58.40
15983;DHT22;14442;50.196;8.096;2022-07-04T13:52:34;22.90;59.00
15983;DHT22;14442;50.196;8.096;2022-07-04T13:55:00;22.90;59.10
15983;DHT22;14442;50.196;8.096;2022-07-04T13:57:27;22.90;59.10
15983;DHT22;14442;50.196;8.096;2022-07-04T13:59:54;22.90;58.50
15983;DHT22;14442;50.196;8.096;2022-07-04T14:02:22;22.90;58.30
15983;DHT22;14442;50.196;8.096;2022-07-04T14:04:48;22.90;58.30
15983;DHT22;14442;50.196;8.096;2022-07-04T14:07:15;23.00;58.40
15983;DHT22;14442;50.196;8.096;2022-07-04T14:09:42;22.90;58.30
15983;DHT22;14442;50.196;8.096;2022-07-04T14:12:09;23.00;58.50
15983;DHT22;14442;50.196;8.096;2022-07-04T14:14:36;23.00;58.20
15983;DHT22;14442;50.196;8.096;2022-07-04T14:17:03;23.00;58.20
15983;DHT22;14442;50.196;8.096;2022-07-04T14:19:31;23.10;58.40
15983;DHT22;14442;50.196;8.096;2022-07-04T14:21:57;23.10;58.50
15983;DHT22;14442;50.196;8.096;2022-07-04T14:24:24;23.20;58.50
15983;DHT22;14442;50.196;8.096;2022-07-04T14:26:51;23.20;58.60
15983;DHT22;14442;50.196;8.096;2022-07-04T14:29:18;23.30;58.60
15983;DHT22;14442;50.196;8.096;2022-07-04T14:31:44;23.30;58.60
15983;DHT22;14442;50.196;8.096;2022-07-04T14:34:11;23.30;58.80
15983;DHT22;14442;50.196;8.096;2022-07-04T14:36:40;23.40;59.00
15983;DHT22;14442;50.196;8.096;2022-07-04T14:39:07;23.40;59.00
15983;DHT22;14442;50.196;8.096;2022-07-04T14:41:34;23.40;59.10
15983;DHT22;14442;50.196;8.096;2022-07-04T14:44:01;23.40;59.20
15983;DHT22;14442;50.196;8.096;2022-07-04T14:46:28;23.40;59.20
15983;DHT22;14442;50.196;8.096;2022-07-04T14:48:56;23.40;59.80
15983;DHT22;14442;50.196;8.096;2022-07-04T14:51:22;23.50;59.40
15983;DHT22;14442;50.196;8.096;2022-07-04T14:53:51;23.40;59.40
15983;DHT22;14442;50.196;8.096;2022-07-04T14:56:18;23.50;59.60
15983;DHT22;14442;50.196;8.096;2022-07-04T14:58:45;23.50;59.70
15983;DHT22;14442;50.196;8.096;2022-07-04T15:01:12;23.50;59.70
15983;DHT22;14442;50.196;8.096;2022-07-04T15:03:38;23.50;59.80
15983;DHT22;14442;50.196;8.096;2022-07-04T15:06:05;23.50;59.80
15983;DHT22;14442;50.196;8.096;2022-07-04T15:08:32;23.50;59.90
15983;DHT22;14442;50.196;8.096;2022-07-04T15:11:00;23.60;60.00
15983;DHT22;14442;50.196;8.096;2022-07-04T15:13:27;23.60;60.00
15983;DHT22;14442;50.196;8.096;2022-07-04T15:15:54;23.60;59.90
15983;DHT22;14442;50.196;8.096;2022-07-04T15:18:21;23.60;59.90
15983;DHT22;14442;50.196;8.096;2022-07-04T15:20:48;23.60;59.90
15983;DHT22;14442;50.196;8.096;2022-07-04T15:23:32;23.60;60.00
15983;DHT22;14442;50.196;8.096;2022-07-04T15:26:17;23.60;60.20
15983;DHT22;14442;50.196;8.096;2022-07-04T15:28:44;23.60;60.10
15983;DHT22;14442;50.196;8.096;2022-07-04T15:31:11;23.60;60.10
15983;DHT22;14442;50.196;8.096;2022-07-04T15:33:38;23.60;60.20
15983;DHT22;14442;50.196;8.096;2022-07-04T15:36:05;23.60;60.20
15983;DHT22;14442;50.196;8.096;2022-07-04T15:38:32;23.60;60.10